Time;durP1;ratioP1;P1;durP2;ratioP2;P2;SDS_P1;SDS_P2;PMS_P1;PMS_P2;Temp;Humidity;BMP_temperature;BMP_pressure;BME280_temperature;BME280_humidity;BME280_pressure;Samples;Min_cycle;Max_cycle;Signal;HPM_P1;HPM_P2
2021/08/22 00:01:40;;;;;;;21.30;8.70;;;19.60;1.00;;;;;;5064506;28;20436;-79
2021/08/22 00:04:16;;;;;;;14.77;9.60;;;19.60;1.00;;;;;;5056355;28;20436;-79
2021/08/22 00:07:34;;;;;;;11.40;8.70;;;19.60;1.00;;;;;;5071042;28;20922;-79
2021/08/22 00:10:11;;;;;;;10.13;7.80;;;19.70;1.00;;;;;;5076060;28;20437;-79
2021/08/22 00:12:40;;;;;;;12.73;8.80;;;19.70;1.00;;;;;;5071562;28;20431;-79
2021/08/22 00:15:11;;;;;;;13.43;8.53;;;19.60;1.00;;;;;;5073513;28;20402;-80
2021/08/22 00:18:04;;;;;;;13.43;8.50;;;19.70;1.00;;;;;;5076602;28;20389;-79
2021/08/22 00:20:40;;;;;;;18.57;9.10;;;19.70;1.00;;;;;;5073707;28;20442;-79
2021/08/22 00:23:10;;;;;;;11.63;8.30;;;19.60;1.00;;;;;;5074544;28;20846;-78
2021/08/22 00:26:04;;;;;;;13.83;7.90;;;19.60;1.00;;;;;;5072107;28;20417;-79
2021/08/22 00:28:40;;;;;;;14.13;8.20;;;16.70;1.00;;;;;;5073146;28;20402;-80
2021/08/22 00:31:10;;;;;;;11.13;7.33;;;19.60;1.00;;;;;;5075922;28;20787;-79
2021/08/22 00:33:46;;;;;;;8.77;6.63;;;19.60;1.00;;;;;;5076406;28;20447;-79
2021/08/22 00:36:16;;;;;;;9.77;7.70;;;19.60;1.00;;;;;;5076200;28;20396;-79
2021/08/22 00:38:52;;;;;;;13.53;6.50;;;19.60;1.00;;;;;;5072426;28;20427;-79
2021/08/22 00:41:29;;;;;;;10.70;6.50;;;19.50;1.00;;;;;;5055960;28;20462;-78
2021/08/22 00:44:16;;;;;;;17.23;6.27;;;19.50;1.00;;;;;;5062700;28;20423;-78
2021/08/22 00:46:41;;;;;;;25.80;8.20;;;19.50;1.00;;;;;;5076304;28;20386;-79
2021/08/22 00:49:28;;;;;;;11.50;5.97;;;19.50;1.00;;;;;;5070295;28;20417;-79
2021/08/22 00:51:54;;;;;;;8.10;6.60;;;19.40;1.00;;;;;;5055687;28;20212;-79
2021/08/22 00:54:22;;;;;;;13.03;6.80;;;19.40;1.00;;;;;;5056966;28;20409;-79
2021/08/22 00:56:51;;;;;;;14.07;6.43;;;19.40;1.00;;;;;;5056831;28;20265;-79
2021/08/22 00:59:39;;;;;;;10.77;6.53;;;19.30;1.00;;;;;;5057865;28;21094;-79
2021/08/22 01:02:18;;;;;;;13.87;6.10;;;19.40;1.00;;;;;;5068907;28;21057;-79
2021/08/22 01:05:05;;;;;;;14.80;6.00;;;19.40;1.00;;;;;;5075440;28;20411;-79
2021/08/22 01:07:59;;;;;;;9.90;6.80;;;19.40;1.00;;;;;;5074423;28;20790;-79
2021/08/22 01:10:43;;;;;;;11.47;7.20;;;19.30;1.00;;;;;;5060546;28;20941;-78
2021/08/22 01:13:22;;;;;;;8.10;5.80;;;19.30;1.00;;;;;;5055643;28;20835;-78
2021/08/22 01:16:28;;;;;;;7.63;6.60;;;19.30;1.00;;;;;;5054213;28;20406;-79
2021/08/22 01:18:57;;;;;;;11.60;6.70;;;19.30;1.00;;;;;;5055894;28;20401;-79
2021/08/22 01:21:28;;;;;;;10.63;6.53;;;19.30;1.00;;;;;;5055518;28;20384;-79
2021/08/22 01:24:03;;;;;;;15.33;7.30;;;19.30;1.00;;;;;;5055831;28;20475;-79
2021/08/22 01:26:39;;;;;;;11.17;6.60;;;19.30;1.00;;;;;;5057346;28;20402;-79
2021/08/22 01:29:27;;;;;;;10.90;6.37;;;19.20;1.00;;;;;;5073317;28;20937;-79
2021/08/22 01:31:54;;;;;;;11.90;6.30;;;19.10;1.00;;;;;;5055219;28;20420;-78
2021/08/22 01:34:21;;;;;;;11.10;6.23;;;19.10;1.00;;;;;;5059222;28;20506;-79
2021/08/22 01:36:47;;;;;;;15.43;6.20;;;19.10;1.00;;;;;;5075527;28;20401;-79
2021/08/22 01:39:35;;;;;;;8.93;5.80;;;19.00;1.00;;;;;;5071653;28;20590;-78
2021/08/22 01:42:07;;;;;;;17.80;6.70;;;19.00;1.00;;;;;;5055192;28;20394;-78
2021/08/22 01:44:36;;;;;;;12.80;7.47;;;19.00;1.00;;;;;;5055077;28;20880;-78
2021/08/22 01:47:08;;;;;;;16.20;6.60;;;19.00;1.00;;;;;;5054728;28;20974;-78
2021/08/22 01:49:41;;;;;;;7.77;5.93;;;19.00;1.00;;;;;;5071085;28;20447;-79
2021/08/22 01:52:16;;;;;;;14.77;6.80;;;19.00;1.00;;;;;;5074571;28;20429;-78
2021/08/22 01:54:43;;;;;;;15.43;6.17;;;19.00;1.00;;;;;;5074881;28;20735;-78
2021/08/22 01:57:09;;;;;;;10.63;6.53;;;19.00;1.00;;;;;;5073718;28;20828;-78
2021/08/22 01:59:46;;;;;;;9.53;6.27;;;19.00;1.00;;;;;;5057584;28;20494;-78
2021/08/22 02:02:22;;;;;;;10.03;6.43;;;18.90;1.00;;;;;;5065486;28;20190;-79
2021/08/22 02:04:58;;;;;;;10.53;6.67;;;18.90;1.00;;;;;;5059885;28;20446;-79
2021/08/22 02:07:46;;;;;;;8.73;6.33;;;18.90;1.00;;;;;;5057395;28;20808;-79
2021/08/22 02:10:35;;;;;;;11.40;6.60;;;18.90;1.00;;;;;;5067715;28;20451;-79
2021/08/22 02:13:05;;;;;;;8.67;5.80;;;18.90;1.00;;;;;;5054396;28;20379;-79
2021/08/22 02:15:47;;;;;;;11.07;5.97;;;18.80;1.00;;;;;;5052983;28;20432;-79
2021/08/22 02:18:16;;;;;;;7.17;6.13;;;18.80;1.00;;;;;;5054737;28;20421;-79
2021/08/22 02:20:52;;;;;;;10.53;6.37;;;18.70;1.00;;;;;;5054325;28;20431;-79
2021/08/22 02:23:40;;;;;;;8.00;6.27;;;18.70;1.00;;;;;;5066506;28;20391;-79
2021/08/22 02:26:10;;;;;;;11.53;6.30;;;18.80;1.00;;;;;;5074107;28;20920;-79
2021/08/22 02:28:57;;;;;;;8.17;5.50;;;18.80;1.00;;;;;;5074094;28;20368;-79
2021/08/22 02:31:29;;;;;;;12.00;6.33;;;18.80;1.00;;;;;;5065049;28;20428;-79
2021/08/22 02:33:56;;;;;;;14.37;6.50;;;18.90;1.00;;;;;;5072963;28;20903;-78
2021/08/22 02:36:46;;;;;;;12.30;6.60;;;18.90;1.00;;;;;;5074263;28;20412;-78
2021/08/22 02:39:12;;;;;;;10.77;5.80;;;18.80;1.00;;;;;;5073665;28;20505;-78
2021/08/22 02:41:52;;;;;;;8.13;5.70;;;18.80;1.00;;;;;;5073608;28;20416;-78
2021/08/22 02:44:46;;;;;;;9.97;6.17;;;18.80;1.00;;;;;;5060919;28;20638;-78
2021/08/22 02:47:14;;;;;;;9.60;6.30;;;18.80;1.00;;;;;;5053681;28;20396;-78
2021/08/22 02:49:52;;;;;;;11.20;5.50;;;18.80;1.00;;;;;;5053917;28;20393;-79
2021/08/22 02:52:22;;;;;;;7.40;5.30;;;18.80;1.00;;;;;;5069471;28;20403;-79
2021/08/22 02:55:16;;;;;;;8.23;5.90;;;18.80;1.00;;;;;;5073361;28;20391;-79
2021/08/22 02:57:43;;;;;;;10.77;5.50;;;18.80;1.00;;;;;;5073779;28;20411;-79
2021/08/22 03:00:11;;;;;;;8.93;6.07;;;18.70;1.00;;;;;;5073799;28;20430;-80
2021/08/22 03:02:40;;;;;;;28.23;5.60;;;18.70;1.00;;;;;;5061423;28;20542;-80
2021/08/22 03:05:22;;;;;;;9.10;5.83;;;18.70;1.00;;;;;;5057058;28;20403;-79
2021/08/22 03:07:52;;;;;;;7.00;5.20;;;18.70;1.00;;;;;;5073189;28;20422;-79
2021/08/22 03:10:52;;;;;;;9.70;5.67;;;18.70;1.00;;;;;;5066651;28;20440;-79
2021/08/22 03:13:22;;;;;;;7.30;5.37;;;18.70;1.00;;;;;;5073478;28;20418;-79
2021/08/22 03:15:52;;;;;;;8.83;5.73;;;18.70;1.00;;;;;;5074097;28;20896;-79
2021/08/22 03:18:22;;;;;;;8.00;5.07;;;18.60;1.00;;;;;;5073675;28;20923;-79
2021/08/22 03:20:48;;;;;;;6.70;5.57;;;18.60;1.00;;;;;;5055331;28;20506;-79
2021/08/22 03:23:16;;;;;;;9.23;5.30;;;18.70;1.00;;;;;;5054828;28;20422;-79
2021/08/22 03:25:46;;;;;;;8.40;5.40;;;18.70;1.00;;;;;;5072911;28;20193;-79
2021/08/22 03:28:46;;;;;;;8.40;5.87;;;18.60;1.00;;;;;;5053380;28;20397;-78
2021/08/22 03:31:12;;;;;;;10.43;6.00;;;18.60;1.00;;;;;;5056290;28;20420;-79
2021/08/22 03:34:04;;;;;;;6.27;4.80;;;18.60;1.00;;;;;;5061095;28;20935;-79
2021/08/22 03:36:37;;;;;;;8.53;5.37;;;18.60;1.00;;;;;;5077162;28;20166;-79
2021/08/22 03:39:34;;;;;;;11.17;4.83;;;18.50;1.00;;;;;;5072585;28;20470;-79
2021/08/22 03:42:16;;;;;;;6.50;5.10;;;18.50;1.00;;;;;;5057618;28;20408;-79
2021/08/22 03:44:52;;;;;;;8.30;4.90;;;18.50;1.00;;;;;;5056964;28;20392;-79
2021/08/22 03:50:40;;;;;;;7.77;5.00;;;18.50;1.00;;;;;;5077567;28;20369;-79
2021/08/22 03:53:52;;;;;;;9.40;5.60;;;18.50;1.00;;;;;;5060814;28;21015;-79
2021/08/22 03:56:17;;;;;;;8.47;4.90;;;18.40;1.00;;;;;;5076906;28;20154;-79
2021/08/22 03:59:07;;;;;;;8.77;5.03;;;18.40;1.00;;;;;;5075572;28;20453;-79
2021/08/22 04:01:46;;;;;;;9.53;5.80;;;18.40;1.00;;;;;;5059511;28;20178;-77
2021/08/22 04:04:22;;;;;;;7.80;5.40;;;18.40;1.00;;;;;;5065860;28;20448;-79
2021/08/22 04:07:05;;;;;;;8.40;4.87;;;18.40;1.00;;;;;;5059289;28;20421;-79
2021/08/22 04:09:30;;;;;;;8.80;5.57;;;18.40;1.00;;;;;;5076079;28;20434;-79
2021/08/22 04:12:40;;;;;;;9.67;5.30;;;18.30;1.00;;;;;;5066499;28;20457;-78
2021/08/22 04:15:06;;;;;;;6.57;5.10;;;18.20;1.00;;;;;;5076422;28;20162;-79
2021/08/22 04:17:31;;;;;;;13.20;5.80;;;18.20;1.00;;;;;;5076487;28;20391;-78
2021/08/22 04:20:05;;;;;;;13.87;5.70;;;18.20;1.00;;;;;;5076631;28;20915;-78
2021/08/22 04:22:41;;;;;;;6.80;5.70;;;18.20;1.00;;;;;;5060526;28;20188;-78
2021/08/22 04:25:09;;;;;;;10.10;5.90;;;18.10;1.00;;;;;;5056492;28;20531;-78
2021/08/22 04:27:35;;;;;;;8.43;5.87;;;18.10;1.00;;;;;;5056732;28;20502;-79
2021/08/22 04:30:02;;;;;;;12.10;6.77;;;18.00;1.00;;;;;;5056752;28;20400;-78
2021/08/22 04:32:27;;;;;;;9.33;5.70;;;18.00;1.00;;;;;;5055358;28;20494;-78
2021/08/22 04:34:53;;;;;;;12.00;6.53;;;18.10;1.00;;;;;;5055713;28;20467;-78
2021/08/22 04:37:22;;;;;;;10.43;6.60;;;18.00;1.00;;;;;;5066406;28;20200;-77
2021/08/22 04:39:48;;;;;;;18.00;6.60;;;18.00;1.00;;;;;;5076147;28;20194;-77
2021/08/22 04:42:16;;;;;;;12.10;6.90;;;18.00;1.00;;;;;;5073240;28;20496;-77
2021/08/22 04:44:52;;;;;;;21.53;7.20;;;18.00;1.00;;;;;;5063639;28;20166;-78
2021/08/22 04:47:22;;;;;;;10.47;6.40;;;18.00;1.00;;;;;;5056314;28;20446;-77
2021/08/22 04:50:05;;;;;;;13.03;6.33;;;18.10;1.00;;;;;;5056642;28;20392;-78
2021/08/22 04:52:30;;;;;;;9.70;6.40;;;18.10;1.00;;;;;;5056026;28;20426;-78
2021/08/22 04:54:57;;;;;;;10.50;6.67;;;18.10;1.00;;;;;;5054936;28;20473;-78
2021/08/22 04:57:23;;;;;;;8.60;6.40;;;18.10;1.00;;;;;;5055979;28;20162;-78
2021/08/22 05:00:05;;;;;;;9.33;6.43;;;18.10;1.00;;;;;;5055820;28;20427;-78
2021/08/22 05:02:52;;;;;;;11.47;6.73;;;18.20;1.00;;;;;;5064770;28;20187;-79
2021/08/22 05:05:22;;;;;;;16.60;6.90;;;18.20;1.00;;;;;;5070535;28;20394;-78
2021/08/22 05:07:58;;;;;;;15.00;6.63;;;18.20;1.00;;;;;;5069030;28;20500;-77
2021/08/22 05:10:55;;;;;;;13.63;7.03;;;18.20;1.00;;;;;;5075327;28;20423;-78
2021/08/22 05:13:21;;;;;;;7.20;5.40;;;18.20;1.00;;;;;;5059386;28;20411;-78
2021/08/22 05:15:50;;;;;;;12.30;7.10;;;18.30;1.00;;;;;;5069903;28;20770;-78
2021/08/22 05:18:17;;;;;;;10.47;6.37;;;18.30;1.00;;;;;;5055885;28;20371;-77
2021/08/22 05:20:43;;;;;;;9.73;5.93;;;18.30;1.00;;;;;;5075951;28;20450;-78
2021/08/22 05:23:08;;;;;;;7.73;6.03;;;18.40;1.00;;;;;;5073612;28;20434;-78
2021/08/22 05:25:34;;;;;;;11.70;6.20;;;18.40;1.00;;;;;;5073898;28;20170;-77
2021/08/22 05:28:16;;;;;;;16.83;6.53;;;18.40;1.00;;;;;;5069693;28;20194;-77
2021/08/22 05:30:42;;;;;;;18.00;6.40;;;18.40;1.00;;;;;;5058236;28;20427;-77
2021/08/22 05:33:08;;;;;;;9.57;6.47;;;18.50;1.00;;;;;;5054790;28;20404;-77
2021/08/22 05:35:34;;;;;;;12.40;5.90;;;18.50;1.00;;;;;;5059228;28;20265;-78
2021/08/22 05:37:59;;;;;;;13.83;6.17;;;18.70;1.00;;;;;;5058432;28;20181;-78
2021/08/22 05:40:52;;;;;;;15.83;6.40;;;18.70;1.00;;;;;;5073479;28;20190;-78
2021/08/22 05:43:17;;;;;;;9.40;5.33;;;18.80;1.00;;;;;;5074833;28;20162;-78
2021/08/22 05:45:46;;;;;;;12.53;6.37;;;18.90;1.00;;;;;;5064492;28;20396;-78
2021/08/22 05:48:28;;;;;;;8.73;6.20;;;19.00;1.00;;;;;;5074674;28;20173;-78
2021/08/22 05:50:54;;;;;;;8.43;6.00;;;19.40;1.00;;;;;;5075096;28;20408;-78
2021/08/22 05:53:22;;;;;;;10.17;6.57;;;19.30;1.00;;;;;;5073949;28;20409;-78
2021/08/22 05:55:48;;;;;;;14.53;5.63;;;19.60;1.00;;;;;;5073277;28;20179;-78
2021/08/22 05:58:16;;;;;;;9.50;5.47;;;19.60;1.00;;;;;;5070565;28;20419;-78
2021/08/22 06:00:46;;;;;;;14.87;5.30;;;19.70;1.00;;;;;;5089986;28;20254;-78
2021/08/22 06:03:22;;;;;;;6.60;5.10;;;19.70;1.00;;;;;;5064710;28;20393;-78
2021/08/22 06:05:58;;;;;;;10.13;6.00;;;19.80;1.00;;;;;;5055239;28;20492;-78
2021/08/22 06:08:24;;;;;;;8.10;5.60;;;19.90;1.00;;;;;;5065593;28;20449;-78
2021/08/22 06:10:52;;;;;;;14.10;5.47;;;19.90;1.00;;;;;;5074476;28;20405;-78
2021/08/22 06:13:28;;;;;;;10.37;5.80;;;20.00;1.00;;;;;;5066818;28;20444;-77
2021/08/22 06:15:58;;;;;;;9.07;5.40;;;20.10;1.00;;;;;;5069746;28;20444;-77
2021/08/22 06:18:24;;;;;;;7.97;5.30;;;20.10;1.00;;;;;;5074614;28;20410;-77
2021/08/22 06:20:52;;;;;;;8.90;5.73;;;20.20;1.00;;;;;;5074731;28;20799;-78
2021/08/22 06:23:18;;;;;;;9.67;6.00;;;20.30;1.00;;;;;;5067033;28;20626;-78
2021/08/22 06:25:44;;;;;;;8.30;6.07;;;20.30;1.00;;;;;;5053616;28;20479;-78
2021/08/22 06:28:16;;;;;;;12.47;5.83;;;20.30;1.00;;;;;;5054105;28;20195;-79
2021/08/22 06:30:43;;;;;;;9.00;5.83;;;20.30;1.00;;;;;;5054702;28;20163;-78
2021/08/22 06:33:10;;;;;;;7.87;5.87;;;20.50;1.00;;;;;;5057559;28;20440;-78
2021/08/22 06:35:36;;;;;;;12.30;5.80;;;20.50;1.00;;;;;;5053675;28;20413;-78
2021/08/22 06:38:02;;;;;;;15.03;6.93;;;20.60;1.00;;;;;;5064979;28;20880;-78
2021/08/22 06:40:28;;;;;;;7.37;5.13;;;20.60;1.00;;;;;;5053664;28;20464;-79
2021/08/22 06:42:53;;;;;;;6.53;5.20;;;20.70;1.00;;;;;;5059409;28;20419;-77
2021/08/22 06:45:22;;;;;;;10.53;5.20;;;20.90;1.00;;;;;;5063916;28;20175;-77
2021/08/22 06:47:53;;;;;;;7.00;5.10;;;21.00;1.00;;;;;;5067062;28;20180;-78
2021/08/22 06:53:40;;;;;;;12.40;5.73;;;21.10;1.00;;;;;;5053501;28;20438;-80
2021/08/22 06:56:16;;;;;;;11.90;5.30;;;21.20;1.00;;;;;;5053378;28;20781;-79
2021/08/22 06:58:42;;;;;;;6.87;5.30;;;21.20;1.00;;;;;;5059813;28;20564;-79
2021/08/22 07:01:16;;;;;;;8.67;5.40;;;21.20;1.00;;;;;;5053419;28;20550;-79
2021/08/22 07:03:42;;;;;;;9.87;5.20;;;21.20;1.00;;;;;;5068012;28;20960;-79
2021/08/22 07:06:10;;;;;;;9.00;5.20;;;21.30;1.00;;;;;;5056361;28;20419;-78
2021/08/22 07:08:40;;;;;;;8.73;5.50;;;21.40;1.00;;;;;;5061274;28;20550;-78
2021/08/22 07:11:16;;;;;;;6.90;5.30;;;21.40;1.00;;;;;;5053294;28;20891;-78
2021/08/22 07:13:52;;;;;;;9.73;5.50;;;21.40;1.00;;;;;;5056932;28;20459;-79
2021/08/22 07:16:34;;;;;;;7.60;5.40;;;21.40;1.00;;;;;;5073376;28;20853;-79
2021/08/22 07:19:04;;;;;;;6.40;5.23;;;21.50;1.00;;;;;;5063681;28;20473;-79
2021/08/22 07:21:46;;;;;;;7.00;5.17;;;21.60;1.00;;;;;;5052980;28;20489;-78
2021/08/22 07:24:12;;;;;;;7.43;5.03;;;21.60;1.00;;;;;;5058211;28;20439;-79
2021/08/22 07:26:46;;;;;;;7.27;5.47;;;21.70;1.00;;;;;;5073221;28;20425;-79
2021/08/22 07:29:28;;;;;;;10.03;5.83;;;;;;;;;;5062430;28;20236;-79
2021/08/22 07:32:05;;;;;;;11.23;5.03;;;22.00;1.00;;;;;;5053430;28;20412;-79
2021/08/22 07:34:34;;;;;;;8.80;5.67;;;22.00;1.00;;;;;;5053162;28;20488;-78
2021/08/22 07:37:10;;;;;;;8.23;5.23;;;22.00;1.00;;;;;;5066410;28;20454;-78
2021/08/22 07:39:52;;;;;;;8.03;5.03;;;22.00;1.00;;;;;;5055410;28;20495;-79
2021/08/22 07:42:22;;;;;;;5.60;4.67;;;22.20;1.00;;;;;;5071061;28;20809;-79
2021/08/22 07:45:10;;;;;;;9.30;4.90;;;22.20;1.00;;;;;;5072935;28;20404;-79
2021/08/22 07:47:41;;;;;;;7.97;5.07;;;22.30;1.00;;;;;;5072802;28;20929;-79
2021/08/22 07:50:16;;;;;;;20.17;5.60;;;22.40;1.00;;;;;;5072880;28;20821;-79
2021/08/22 07:52:46;;;;;;;10.30;5.23;;;22.40;1.00;;;;;;5069335;28;20914;-77
2021/08/22 07:55:22;;;;;;;5.93;4.73;;;22.40;1.00;;;;;;5053028;28;20771;-78
2021/08/22 07:57:53;;;;;;;7.03;5.23;;;22.40;1.00;;;;;;5053188;28;20439;-77
2021/08/22 08:00:19;;;;;;;9.83;5.97;;;22.30;1.00;;;;;;5051781;28;20519;-78
2021/08/22 08:02:45;;;;;;;10.40;5.40;;;22.30;1.00;;;;;;5066456;28;20486;-78
2021/08/22 08:05:22;;;;;;;8.80;5.07;;;22.30;1.00;;;;;;5057945;28;20181;-78
2021/08/22 08:07:52;;;;;;;8.17;5.00;;;22.50;1.00;;;;;;5053614;28;20587;-79
2021/08/22 08:10:24;;;;;;;6.30;4.43;;;22.50;1.00;;;;;;5072428;28;20412;-79
2021/08/22 08:12:50;;;;;;;7.57;4.77;;;22.60;1.00;;;;;;5067864;28;20426;-79
2021/08/22 08:15:16;;;;;;;7.60;4.40;;;22.70;1.00;;;;;;5071882;28;20910;-79
2021/08/22 08:18:04;;;;;;;8.37;5.07;;;22.60;1.00;;;;;;5076542;28;20397;-85
2021/08/22 08:20:30;;;;;;;6.30;4.10;;;22.60;1.00;;;;;;5075260;28;20467;-78
2021/08/22 08:22:55;;;;;;;8.77;5.27;;;22.50;1.00;;;;;;5073763;28;20417;-78
2021/08/22 08:25:40;;;;;;;8.67;5.10;;;22.40;1.00;;;;;;5057290;28;20429;-78
2021/08/22 08:28:10;;;;;;;4.73;4.23;;;22.50;1.00;;;;;;5062015;28;20179;-79
2021/08/22 08:30:46;;;;;;;4.63;3.87;;;22.50;1.00;;;;;;5054759;28;20409;-78
2021/08/22 08:33:22;;;;;;;5.63;4.90;;;22.50;1.00;;;;;;5057622;28;20920;-78
2021/08/22 08:35:52;;;;;;;7.97;4.10;;;22.60;1.00;;;;;;5055918;28;20795;-78
2021/08/22 08:38:18;;;;;;;4.43;4.00;;;22.50;1.00;;;;;;5057935;28;20412;-78
2021/08/22 08:40:46;;;;;;;7.57;4.53;;;22.50;1.00;;;;;;5058217;28;20428;-78
2021/08/22 08:43:14;;;;;;;9.23;4.17;;;22.60;1.00;;;;;;5056132;28;20153;-78
2021/08/22 08:46:10;;;;;;;5.90;3.47;;;22.80;1.00;;;;;;5065411;28;20425;-79
2021/08/22 08:49:08;;;;;;;6.50;4.07;;;22.90;1.00;;;;;;5075880;28;20466;-78
2021/08/22 08:51:55;;;;;;;5.27;3.60;;;22.80;1.00;;;;;;5056454;28;20372;-78
2021/08/22 08:54:36;;;;;;;5.27;3.57;;;23.30;1.00;;;;;;5063912;28;20437;-78
2021/08/22 08:57:22;;;;;;;6.43;3.33;;;23.40;1.00;;;;;;5063309;28;20511;-78
2021/08/22 08:59:48;;;;;;;5.73;3.70;;;23.40;1.00;;;;;;5068216;28;20445;-78
2021/08/22 09:02:16;;;;;;;6.00;3.50;;;23.60;1.00;;;;;;5072229;28;20515;-78
2021/08/22 09:04:58;;;;;;;4.17;3.60;;;23.60;1.00;;;;;;5065989;28;20238;-78
2021/08/22 09:08:03;;;;;;;12.50;4.23;;;23.70;1.00;;;;;;5061418;28;20418;-78
2021/08/22 09:14:30;;;;;;;5.63;3.57;;;23.70;1.00;;;;;;5071046;28;20418;-88
2021/08/22 09:17:34;;;;;;;3.70;3.40;;;23.80;1.00;;;;;;5075737;28;20399;-76
2021/08/22 09:20:27;;;;;;;7.47;4.03;;;23.90;1.00;;;;;;5055440;28;20472;-76
2021/08/22 09:23:30;;;;;;;4.67;3.70;;;23.90;1.00;;;;;;5070106;28;20423;-76
2021/08/22 09:26:33;;;;;;;7.20;3.47;;;23.90;1.00;;;;;;5055416;28;20403;-76
2021/08/22 09:29:22;;;;;;;5.63;3.50;;;23.80;1.00;;;;;;5054818;28;20423;-76
2021/08/22 09:35:19;;;;;;;9.90;3.47;;;23.70;1.00;;;;;;5074549;28;20442;-76
2021/08/22 09:38:18;;;;;;;3.67;3.37;;;23.70;1.00;;;;;;5075304;28;20394;-76
2021/08/22 09:41:07;;;;;;;5.43;3.30;;;23.80;1.00;;;;;;5072668;28;20780;-76
2021/08/22 09:43:57;;;;;;;3.93;3.20;;;23.80;1.00;;;;;;5056943;28;20408;-77
2021/08/22 09:46:46;;;;;;;8.90;4.63;;;23.90;1.00;;;;;;5074607;28;20933;-77
2021/08/22 09:49:49;;;;;;;4.37;3.50;;;23.80;1.00;;;;;;5066888;28;20443;-77
2021/08/22 09:52:39;;;;;;;10.53;3.70;;;23.90;1.00;;;;;;5055059;28;20375;-76
2021/08/22 09:55:26;;;;;;;8.43;3.97;;;24.10;1.00;;;;;;5057244;28;20396;-76
2021/08/22 09:58:19;;;;;;;5.43;4.00;;;24.20;1.00;;;;;;5064775;28;20511;-76
2021/08/22 10:00:56;;;;;;;7.10;4.20;;;24.10;1.00;;;;;;5066779;28;20455;-76
2021/08/22 10:03:56;;;;;;;4.90;3.90;;;24.10;1.00;;;;;;5071864;28;20431;-76
2021/08/22 10:06:55;;;;;;;5.93;4.23;;;24.10;1.00;;;;;;5073412;28;20447;-83
2021/08/22 10:09:25;;;;;;;6.87;4.10;;;24.00;1.00;;;;;;5072265;28;20892;-77
2021/08/22 10:12:01;;;;;;;5.20;3.97;;;23.80;1.00;;;;;;5061780;28;20436;-78
2021/08/22 10:14:31;;;;;;;5.40;3.60;;;23.80;1.00;;;;;;5055206;28;20428;-78
2021/08/22 10:16:57;;;;;;;3.87;3.50;;;23.80;1.00;;;;;;5053309;28;20416;-77
2021/08/22 10:19:27;;;;;;;5.30;4.03;;;23.90;1.00;;;;;;5053199;28;20454;-78
2021/08/22 10:22:13;;;;;;;5.20;3.47;;;;;;;;;;5053200;28;20404;-78
2021/08/22 10:24:43;;;;;;;5.80;3.60;;;24.30;1.00;;;;;;5053478;28;20432;-78
2021/08/22 10:27:11;;;;;;;4.97;3.60;;;24.50;1.00;;;;;;5057310;28;20449;-77
2021/08/22 10:29:49;;;;;;;6.03;3.90;;;24.60;1.00;;;;;;5053229;28;20460;-77
2021/08/22 10:32:15;;;;;;;10.03;4.10;;;24.90;1.00;;;;;;5053455;28;20429;-78
2021/08/22 10:34:43;;;;;;;3.97;3.40;;;25.00;1.00;;;;;;5057292;28;20427;-78
2021/08/22 10:37:27;;;;;;;4.20;3.07;;;25.30;1.00;;;;;;5053100;28;20421;-78
2021/08/22 10:40:16;;;;;;;3.83;3.43;;;25.40;1.00;;;;;;5052081;28;21003;-78
2021/08/22 10:42:43;;;;;;;4.03;3.60;;;25.40;1.00;;;;;;4991403;28;20416;-78
2021/08/22 10:45:09;;;;;;;4.03;3.30;;;25.50;1.00;;;;;;4991809;28;20436;-78
2021/08/22 10:47:40;;;;;;;6.00;3.37;;;25.60;1.00;;;;;;5006554;28;20442;-78
2021/08/22 10:50:06;;;;;;;4.10;3.23;;;25.70;1.00;;;;;;5010498;28;20422;-78
2021/08/22 10:52:34;;;;;;;8.30;3.43;;;25.50;1.00;;;;;;5011137;28;20404;-77
2021/08/22 10:55:14;;;;;;;3.20;2.90;;;25.40;1.00;;;;;;5016953;28;20446;-78
2021/08/22 10:57:48;;;;;;;3.57;3.27;;;25.40;1.00;;;;;;4991558;28;20551;-78
2021/08/22 11:00:35;;;;;;;4.37;3.03;;;25.40;1.00;;;;;;4999759;28;20471;-77
2021/08/22 11:03:05;;;;;;;6.47;3.73;;;25.40;1.00;;;;;;5009051;28;20447;-77
2021/08/22 11:05:33;;;;;;;4.63;3.30;;;25.40;1.00;;;;;;5010585;28;20422;-77
2021/08/22 11:08:20;;;;;;;6.53;3.07;;;25.60;1.00;;;;;;5010359;28;20418;-78
2021/08/22 11:11:04;;;;;;;3.63;3.23;;;;;;;;;;5009648;28;20945;-77
2021/08/22 11:13:37;;;;;;;5.73;3.37;;;25.90;1.00;;;;;;5007962;28;20426;-77
2021/08/22 11:16:07;;;;;;;7.47;3.93;;;26.00;1.00;;;;;;5011481;28;20442;-76
2021/08/22 11:18:45;;;;;;;12.93;3.57;;;25.80;1.00;;;;;;4991625;28;20437;-75
2021/08/22 11:21:11;;;;;;;5.50;3.60;;;25.80;1.00;;;;;;5058126;28;20458;-77
2021/08/22 11:23:37;;;;;;;5.03;3.77;;;;;;;;;;5060464;28;20412;-82
2021/08/22 11:26:20;;;;;;;4.63;3.73;;;25.50;1.00;;;;;;5053269;28;20240;-82
2021/08/22 11:28:57;;;;;;;4.10;3.70;;;25.40;1.00;;;;;;5051897;28;20943;-83
2021/08/22 11:31:43;;;;;;;5.10;3.67;;;25.40;1.00;;;;;;5054577;28;20524;-82
2021/08/22 11:34:12;;;;;;;5.00;4.10;;;25.40;1.00;;;;;;5053524;28;20435;-82
2021/08/22 11:37:24;;;;;;;4.10;3.60;;;25.40;1.00;;;;;;5053119;28;20402;-82
2021/08/22 11:40:28;;;;;;;3.87;3.47;;;25.20;1.00;;;;;;5050260;28;20583;-82
2021/08/22 11:43:12;;;;;;;7.27;5.77;;;24.90;1.00;;;;;;5053301;28;20417;-82
2021/08/22 11:45:45;;;;;;;6.83;5.37;;;24.60;1.00;;;;;;5068435;28;20499;-80
2021/08/22 11:48:40;;;;;;;6.13;4.80;;;24.30;1.00;;;;;;5070893;28;20416;-83
2021/08/22 11:51:10;;;;;;;10.20;5.87;;;24.20;1.00;;;;;;5074449;28;20394;-83
2021/08/22 11:53:59;;;;;;;18.70;7.43;;;24.00;1.00;;;;;;5066788;28;20423;-83
2021/08/22 11:57:04;;;;;;;7.47;5.63;;;23.90;1.00;;;;;;5057124;28;20393;-83
2021/08/22 11:59:34;;;;;;;10.63;5.67;;;23.90;1.00;;;;;;5056946;28;20573;-82
2021/08/22 12:02:20;;;;;;;8.30;5.13;;;23.90;1.00;;;;;;5057017;28;20763;-83
2021/08/22 12:05:26;;;;;;;5.63;4.77;;;23.60;1.00;;;;;;5066268;28;20428;-83
2021/08/22 12:08:10;;;;;;;5.07;4.23;;;23.40;1.00;;;;;;4991835;28;20433;-83
2021/08/22 12:11:24;;;;;;;5.27;4.17;;;23.20;1.00;;;;;;4979499;28;20448;-85
2021/08/22 12:13:52;;;;;;;5.93;3.97;;;22.50;1.00;;;;;;4987096;28;20451;-78
2021/08/22 12:16:32;;;;;;;5.77;3.20;;;22.20;1.00;;;;;;4995128;28;20409;-77
2021/08/22 12:19:17;;;;;;;4.73;3.10;;;21.80;1.00;;;;;;4984946;28;20551;-77
2021/08/22 12:21:48;;;;;;;9.83;3.40;;;21.60;1.00;;;;;;4981417;28;20423;-77
2021/08/22 12:24:25;;;;;;;4.20;3.20;;;21.20;1.00;;;;;;4975112;28;20941;-77
2021/08/22 12:27:01;;;;;;;3.53;3.10;;;21.10;1.00;;;;;;4989846;28;20411;-77
2021/08/22 12:29:33;;;;;;;4.30;3.20;;;21.10;1.00;;;;;;4978601;28;20972;-78
2021/08/22 12:32:16;;;;;;;5.27;2.97;;;21.00;1.00;;;;;;4971771;28;20891;-77
2021/08/22 12:35:03;;;;;;;3.40;3.07;;;21.10;1.00;;;;;;4975723;28;20829;-77
2021/08/22 12:37:35;;;;;;;16.07;3.60;;;21.10;1.00;;;;;;4979046;28;20435;-77
2021/08/22 12:40:23;;;;;;;5.30;2.87;;;21.10;1.00;;;;;;5056400;28;20982;-77
2021/08/22 12:42:48;;;;;;;4.47;2.90;;;21.00;1.00;;;;;;5056504;28;20470;-77
2021/08/22 12:45:17;;;;;;;2.57;2.37;;;21.20;1.00;;;;;;5056360;28;20504;-77
2021/08/22 12:47:43;;;;;;;5.43;3.50;;;21.30;1.00;;;;;;5056308;28;20153;-78
2021/08/22 12:50:11;;;;;;;8.60;3.40;;;21.60;1.00;;;;;;5056230;28;20504;-77
2021/08/22 12:52:46;;;;;;;4.00;3.10;;;21.90;1.00;;;;;;5056462;28;20170;-77
2021/08/22 12:55:12;;;;;;;4.83;2.93;;;22.20;1.00;;;;;;5073509;28;20818;-77
2021/08/22 12:57:40;;;;;;;3.57;3.20;;;22.70;1.00;;;;;;5074906;28;20406;-76
2021/08/22 13:00:07;;;;;;;8.40;3.73;;;22.70;1.00;;;;;;5056156;28;20227;-76
2021/08/22 13:02:32;;;;;;;6.53;2.90;;;22.80;1.00;;;;;;5056598;28;20434;-76
2021/08/22 13:04:58;;;;;;;5.30;3.00;;;22.80;1.00;;;;;;5063896;28;20420;-76
2021/08/22 13:07:24;;;;;;;4.30;2.77;;;23.00;1.00;;;;;;5067221;28;20680;-76
2021/08/22 13:09:49;;;;;;;5.47;3.13;;;23.00;1.00;;;;;;5075467;28;20279;-76
2021/08/22 13:12:15;;;;;;;3.87;3.30;;;22.90;1.00;;;;;;5057813;28;20221;-76
2021/08/22 13:14:41;;;;;;;4.50;3.03;;;22.60;1.00;;;;;;5055139;28;20610;-76
2021/08/22 13:17:06;;;;;;;3.97;2.77;;;22.60;1.00;;;;;;5070337;28;20185;-76
2021/08/22 13:19:32;;;;;;;4.40;2.90;;;22.50;1.00;;;;;;5054644;28;20175;-76
2021/08/22 13:21:58;;;;;;;3.20;2.70;;;22.50;1.00;;;;;;5055504;28;20618;-76
2021/08/22 13:24:28;;;;;;;4.80;3.50;;;22.30;1.00;;;;;;5055593;28;20293;-79
2021/08/22 13:27:04;;;;;;;4.07;2.90;;;22.50;1.00;;;;;;5055084;28;20183;-79
2021/08/22 13:29:34;;;;;;;3.47;2.43;;;22.50;1.00;;;;;;5063248;28;21063;-79
2021/08/22 13:32:16;;;;;;;4.37;3.30;;;22.90;1.00;;;;;;5060249;28;20781;-79
2021/08/22 13:34:46;;;;;;;3.00;2.17;;;22.90;1.00;;;;;;5074937;28;20389;-79
2021/08/22 13:37:17;;;;;;;2.90;2.30;;;22.90;1.00;;;;;;5075019;28;20917;-79
2021/08/22 13:39:42;;;;;;;2.80;2.30;;;22.90;1.00;;;;;;5075520;28;20426;-78
2021/08/22 13:42:28;;;;;;;2.60;2.30;;;23.00;1.00;;;;;;5073279;28;20432;-78
2021/08/22 13:44:54;;;;;;;2.70;2.40;;;23.00;1.00;;;;;;5075062;28;20183;-79
2021/08/22 13:47:52;;;;;;;3.00;2.47;;;23.00;1.00;;;;;;5074901;28;20429;-78
2021/08/22 13:50:40;;;;;;;5.60;2.90;;;23.10;1.00;;;;;;5074527;28;20168;-79
2021/08/22 13:53:07;;;;;;;5.17;2.60;;;23.40;1.00;;;;;;5057580;28;20501;-78
2021/08/22 13:55:35;;;;;;;2.60;1.93;;;23.80;1.00;;;;;;5057476;28;20894;-78